Time;durP1;ratioP1;P1;durP2;ratioP2;P2;SDS_P1;SDS_P2;PMS_P1;PMS_P2;Temp;Humidity;BMP_temperature;BMP_pressure;BME280_temperature;BME280_humidity;BME280_pressure;Samples;Min_cycle;Max_cycle;Signal;HPM_P1;HPM_P2
2022/01/12 00:02:07;;;;;;;;;73.67;57.33;;;;;2.22;73.96;103226.06;5074514;28;45728;-68
2022/01/12 00:04:33;;;;;;;;;70.67;54.00;;;;;2.12;74.24;103216.69;5075071;27;45790;-69
2022/01/12 00:06:58;;;;;;;;;72.33;55.33;;;;;2.15;73.75;103216.03;5057588;28;45650;-68
2022/01/12 00:09:24;;;;;;;;;79.00;58.00;;;;;1.91;73.25;103208.19;5077030;28;46448;-68
2022/01/12 00:11:50;;;;;;;;;76.33;56.00;;;;;1.81;74.70;103196.25;5080193;28;46467;-69
2022/01/12 00:14:16;;;;;;;;;81.67;60.67;;;;;1.82;74.88;103215.25;5080547;28;45415;-69
2022/01/12 00:16:46;;;;;;;;;78.33;53.67;;;;;1.80;74.34;103211.63;5076638;28;45533;-69
2022/01/12 00:19:12;;;;;;;;;73.33;55.33;;;;;1.74;75.10;103186.25;5076505;28;46288;-69
2022/01/12 00:21:38;;;;;;;;;72.00;54.00;;;;;1.88;74.75;103195.06;5075488;28;45484;-68
2022/01/12 00:24:04;;;;;;;;;74.67;56.00;;;;;1.99;74.45;103213.94;5075223;28;45481;-68
2022/01/12 00:34:33;;;;;;;;;74.67;55.00;;;;;2.09;74.26;103188.94;5087059;28;45446;-68
2022/01/12 00:36:58;;;;;;;;;78.00;57.00;;;;;1.65;74.15;103137.31;5065804;28;45601;-69
2022/01/12 00:39:24;;;;;;;;;80.00;59.00;;;;;2.00;74.37;103213.19;5081400;27;45357;-68
2022/01/12 00:41:50;;;;;;;;;77.33;57.00;;;;;2.11;73.67;103231.31;5077529;28;45373;-69
2022/01/12 00:44:24;;;;;;;;;76.33;58.00;;;;;2.09;74.12;103224.22;5078160;28;45315;-69
2022/01/12 00:46:51;;;;;;;;;77.00;55.00;;;;;1.87;74.60;103221.66;5078722;28;45382;-69
2022/01/12 00:49:17;;;;;;;;;74.33;55.67;;;;;1.82;75.02;103203.22;5075810;28;45368;-68
2022/01/12 00:51:42;;;;;;;;;73.00;59.00;;;;;1.78;74.13;103202.84;5075275;28;45911;-68
2022/01/12 00:54:08;;;;;;;;;78.00;57.00;;;;;1.86;74.84;103222.47;5061736;28;45377;-69
2022/01/12 00:56:34;;;;;;;;;79.67;57.00;;;;;2.04;75.27;103241.97;5080284;28;45492;-66
2022/01/12 00:59:00;;;;;;;;;69.67;54.33;;;;;2.00;74.16;103239.94;5079758;28;46409;-67
2022/01/12 01:01:27;;;;;;;;;77.00;56.33;;;;;1.84;74.15;103216.25;5077501;28;45522;-68
2022/01/12 01:03:53;;;;;;;;;69.67;52.33;;;;;2.07;74.69;103239.63;5075434;27;45870;-66
2022/01/12 01:06:20;;;;;;;;;80.33;57.33;;;;;2.04;74.47;103247.16;5076254;28;45531;-68
2022/01/12 01:08:51;;;;;;;;;73.00;56.00;;;;;1.88;74.82;103249.31;5075342;28;45724;-67
2022/01/12 01:11:21;;;;;;;;;75.33;58.33;;;;;1.99;74.30;103256.19;5075396;28;45428;-67
2022/01/12 01:13:59;;;;;;;;;76.67;56.00;;;;;2.06;74.31;103265.34;5057333;28;45435;-67
2022/01/12 01:27:18;;;;;;;;;75.33;54.33;;;;;1.88;74.21;103224.38;5060487;28;45391;-67
2022/01/12 01:29:44;;;;;;;;;68.67;51.67;;;;;2.11;73.93;103280.44;5054106;28;45668;-67
2022/01/12 01:32:11;;;;;;;;;79.67;57.33;;;;;2.07;74.27;103275.81;5054478;28;45490;-67
2022/01/12 01:34:43;;;;;;;;;65.33;51.00;;;;;2.20;74.55;103282.81;5071877;28;45426;-67
2022/01/12 01:37:10;;;;;;;;;77.00;56.67;;;;;2.25;73.97;103285.75;5069246;28;45675;-66
2022/01/12 01:39:38;;;;;;;;;74.00;52.33;;;;;2.26;73.23;103285.88;5073298;28;45389;-66
2022/01/12 01:42:14;;;;;;;;;70.33;51.00;;;;;1.96;73.93;103232.72;5057083;28;45334;-67
2022/01/12 01:55:21;;;;;;;;;69.67;52.67;;;;;1.98;73.28;103251.81;5074737;28;45418;-66
2022/01/12 01:57:47;;;;;;;;;73.00;52.67;;;;;2.24;73.87;103296.91;5074867;28;45602;-67
2022/01/12 02:00:17;;;;;;;;;69.00;50.67;;;;;2.19;74.58;103291.38;5074860;27;45960;-67
2022/01/12 02:02:45;;;;;;;;;72.33;53.33;;;;;2.19;73.91;103262.03;5074685;28;45560;-68
2022/01/12 02:05:11;;;;;;;;;70.00;53.67;;;;;2.41;74.40;103312.00;5072776;28;45486;-66
2022/01/12 02:07:37;;;;;;;;;66.00;51.33;;;;;2.38;73.77;103309.19;5075450;28;45357;-70
2022/01/12 02:10:04;;;;;;;;;68.00;51.00;;;;;2.39;74.05;103298.06;5077084;28;45659;-67
2022/01/12 02:12:30;;;;;;;;;74.00;55.00;;;;;2.27;73.47;103276.44;5074747;27;45414;-68
2022/01/12 02:15:03;;;;;;;;;71.33;52.00;;;;;2.24;73.85;103300.38;5074166;27;45518;-67
2022/01/12 02:17:38;;;;;;;;;72.00;55.00;;;;;2.16;74.32;103285.97;5077458;27;45535;-67
2022/01/12 02:20:24;;;;;;;;;75.67;54.00;;;;;2.17;73.95;103282.59;5074418;28;45738;-67
2022/01/12 02:42:39;;;;;;;;;70.00;53.33;;;;;1.93;73.98;103211.81;5073740;28;45871;-67
2022/01/12 02:50:45;;;;;;;;;82.33;59.00;;;;;2.18;75.42;103255.94;5073582;28;45774;-68
2022/01/12 02:55:58;;;;;;;;;73.33;56.00;;;;;2.19;74.29;103251.69;5077914;28;45473;-69
2022/01/12 02:58:23;;;;;;;;;73.67;54.00;;;;;1.93;75.05;103248.00;5075652;28;45442;-69
2022/01/12 03:01:25;;;;;;;;;71.00;51.00;;;;;1.85;76.30;103250.00;5074341;28;45559;-69
2022/01/12 03:03:51;;;;;;;;;73.33;56.00;;;;;1.99;75.54;103247.56;5073594;27;45853;-68
2022/01/12 03:06:21;;;;;;;;;69.33;49.67;;;;;1.86;75.93;103232.78;5073858;28;45509;-67
2022/01/12 03:08:47;;;;;;;;;73.00;55.33;;;;;2.05;75.75;103248.03;5057968;28;45394;-70
2022/01/12 03:11:16;;;;;;;;;74.33;56.00;;;;;2.01;75.13;103251.16;5078462;28;45401;-68
2022/01/12 03:13:42;;;;;;;;;73.33;53.00;;;;;1.86;75.18;103219.88;5074261;28;45420;-69
2022/01/12 03:16:14;;;;;;;;;74.67;55.00;;;;;2.21;74.37;103266.53;5073531;28;45305;-69
2022/01/12 03:18:41;;;;;;;;;71.33;52.00;;;;;2.13;73.92;103255.56;5073985;28;45456;-68
2022/01/12 03:21:06;;;;;;;;;69.33;51.00;;;;;2.12;75.33;103278.75;5076358;28;45403;-68
2022/01/12 03:23:32;;;;;;;;;70.33;51.33;;;;;2.10;75.42;103293.25;5077424;28;45433;-68
2022/01/12 03:25:58;;;;;;;;;58.67;42.67;;;;;2.11;75.85;103277.84;5080376;28;45445;-67
2022/01/12 03:28:24;;;;;;;;;69.67;51.00;;;;;2.12;74.77;103274.47;5077477;28;45541;-67
2022/01/12 03:33:36;;;;;;;;;63.33;45.67;;;;;2.06;75.22;103275.69;5081455;28;45558;-67
2022/01/12 03:39:00;;;;;;;;;73.33;54.00;;;;;2.16;74.85;103298.91;5021324;28;45416;-68
2022/01/12 03:41:28;;;;;;;;;73.67;54.00;;;;;2.15;74.44;103291.00;5077259;28;45513;-68
2022/01/12 03:43:56;;;;;;;;;68.67;51.33;;;;;1.97;75.26;103285.31;5077196;28;45478;-67
2022/01/12 03:46:30;;;;;;;;;72.33;53.00;;;;;1.97;75.52;103304.31;5077800;28;45576;-67
2022/01/12 03:48:56;;;;;;;;;75.00;55.33;;;;;1.86;75.29;103298.31;5076993;28;45453;-68
2022/01/12 03:51:21;;;;;;;;;69.67;51.00;;;;;1.88;75.60;103289.00;5076868;28;45534;-68
2022/01/12 03:53:47;;;;;;;;;69.00;51.33;;;;;1.91;76.04;103281.47;5076522;28;46289;-67
2022/01/12 03:56:13;;;;;;;;;69.33;49.00;;;;;1.60;75.96;103252.31;5077165;27;45417;-66
2022/01/12 03:58:38;;;;;;;;;71.00;53.00;;;;;1.94;75.62;103305.75;5078249;28;45347;-69
2022/01/12 04:01:04;;;;;;;;;72.00;49.67;;;;;1.84;76.06;103309.31;5078067;27;45655;-67
2022/01/12 04:03:36;;;;;;;;;61.33;49.00;;;;;1.85;75.79;103311.09;5077105;28;46416;-67
2022/01/12 04:08:47;;;;;;;;;64.33;48.00;;;;;1.86;75.53;103321.56;5079531;28;45327;-67
2022/01/12 04:11:17;;;;;;;;;68.33;50.67;;;;;1.89;75.32;103331.22;5077600;27;45818;-68
2022/01/12 04:13:44;;;;;;;;;63.67;50.00;;;;;1.76;75.44;103313.88;5058074;28;46635;-68
2022/01/12 04:16:11;;;;;;;;;60.33;45.67;;;;;1.83;75.63;103329.06;5059009;28;45898;-68
2022/01/12 04:18:38;;;;;;;;;58.33;44.00;;;;;1.97;74.98;103348.25;5076999;28;45406;-67
2022/01/12 04:21:07;;;;;;;;;62.33;45.67;;;;;1.85;75.06;103312.03;5059691;28;45540;-67
2022/01/12 04:23:35;;;;;;;;;63.00;45.33;;;;;1.96;75.06;103350.72;5078656;28;45538;-67
2022/01/12 04:26:04;;;;;;;;;68.00;47.33;;;;;1.87;74.86;103356.06;5059755;28;45479;-68
2022/01/12 04:28:30;;;;;;;;;59.67;46.00;;;;;1.84;75.70;103356.72;5076457;28;45464;-68
2022/01/12 04:30:57;;;;;;;;;58.67;46.33;;;;;1.88;75.45;103347.53;5067480;28;45559;-66
2022/01/12 04:33:23;;;;;;;;;62.67;47.67;;;;;1.91;75.36;103348.66;5080755;27;45563;-68
2022/01/12 04:35:54;;;;;;;;;70.33;52.00;;;;;1.93;75.35;103356.56;5081380;28;45311;-68
2022/01/12 04:38:23;;;;;;;;;62.00;46.33;;;;;1.94;75.74;103365.19;5060799;28;45512;-69
2022/01/12 04:40:49;;;;;;;;;59.67;46.00;;;;;1.94;75.06;103350.59;5077172;28;45331;-68
2022/01/12 04:43:17;;;;;;;;;58.67;44.00;;;;;2.01;75.48;103360.63;5058018;28;48265;-68
2022/01/12 04:48:34;;;;;;;;;66.67;46.67;;;;;2.04;75.22;103367.72;5055807;28;45798;-67
2022/01/12 04:51:03;;;;;;;;;62.33;46.00;;;;;2.04;75.15;103373.81;5062758;28;45370;-68
2022/01/12 04:53:31;;;;;;;;;66.33;50.33;;;;;1.55;75.24;103282.06;5076138;27;45843;-67
2022/01/12 04:55:58;;;;;;;;;65.00;44.33;;;;;1.84;75.30;103348.97;5075678;27;46012;-66
2022/01/12 04:58:24;;;;;;;;;58.67;44.67;;;;;1.96;74.97;103351.63;5075666;28;45630;-67
2022/01/12 05:00:52;;;;;;;;;61.33;46.33;;;;;2.06;74.93;103361.88;5076677;28;45488;-67
2022/01/12 05:06:37;;;;;;;;;66.67;47.33;;;;;1.87;75.35;103335.38;5070914;28;45648;-67
2022/01/12 05:09:40;;;;;;;;;63.67;46.33;;;;;2.04;75.37;103381.56;5075411;28;45516;-68
2022/01/12 05:14:58;;;;;;;;;64.00;47.33;;;;;1.88;75.15;103327.75;5075925;28;45852;-68
2022/01/12 05:17:24;;;;;;;;;64.00;49.00;;;;;2.21;75.01;103389.75;5057317;28;45720;-67
2022/01/12 05:19:49;;;;;;;;;61.00;45.00;;;;;2.22;74.85;103392.44;5075594;27;45434;-67
2022/01/12 05:22:15;;;;;;;;;63.00;46.67;;;;;2.18;75.24;103373.97;5072400;28;46205;-68
2022/01/12 05:24:41;;;;;;;;;63.67;47.33;;;;;2.27;74.82;103374.69;5037998;28;45814;-68
2022/01/12 05:27:06;;;;;;;;;67.33;49.67;;;;;2.30;74.59;103382.69;5055297;28;45506;-68
2022/01/12 05:29:32;;;;;;;;;66.67;47.33;;;;;2.34;74.73;103372.72;5055872;28;45485;-67
2022/01/12 05:31:57;;;;;;;;;62.67;45.00;;;;;2.47;75.18;103364.22;5059252;28;45494;-66
2022/01/12 05:34:25;;;;;;;;;62.00;47.67;;;;;2.49;74.66;103360.09;5057601;28;46297;-66
2022/01/12 05:36:51;;;;;;;;;69.33;53.33;;;;;2.56;73.63;103356.25;5054976;28;45489;-67
2022/01/12 05:39:16;;;;;;;;;65.67;48.33;;;;;2.56;74.20;103353.66;5055025;28;45644;-67
2022/01/12 05:41:42;;;;;;;;;63.00;48.00;;;;;2.49;73.65;103339.38;5054775;28;45407;-68
2022/01/12 05:44:08;;;;;;;;;63.67;49.00;;;;;2.25;73.96;103322.84;5053491;28;45849;-67
2022/01/12 05:46:36;;;;;;;;;66.33;51.67;;;;;2.44;74.28;103374.31;5054616;28;45430;-68
2022/01/12 05:51:47;;;;;;;;;69.67;51.33;;;;;2.27;74.40;103328.16;5055079;28;45370;-67
2022/01/12 05:54:12;;;;;;;;;71.33;51.33;;;;;2.34;74.59;103361.47;5071126;28;45900;-67
2022/01/12 05:56:38;;;;;;;;;68.33;51.00;;;;;2.10;74.67;103334.59;5057192;28;45484;-66
2022/01/12 05:59:04;;;;;;;;;71.67;53.33;;;;;2.16;74.65;103349.69;5078126;27;45587;-67
2022/01/12 06:01:29;;;;;;;;;67.33;50.33;;;;;2.28;74.32;103364.50;5071231;27;45530;-67
2022/01/12 06:03:55;;;;;;;;;66.67;50.33;;;;;2.35;74.78;103376.22;5054777;28;45613;-68
2022/01/12 06:06:21;;;;;;;;;62.33;48.33;;;;;2.44;75.01;103387.25;5054526;28;45395;-68
2022/01/12 06:08:46;;;;;;;;;61.67;43.00;;;;;2.46;74.16;103385.69;5054431;28;45433;-67
2022/01/12 06:11:12;;;;;;;;;68.33;51.00;;;;;2.43;74.10;103374.22;5054480;28;45652;-67
2022/01/12 06:13:37;;;;;;;;;65.33;47.33;;;;;2.30;74.22;103364.59;5054144;28;46020;-67
2022/01/12 06:16:03;;;;;;;;;60.33;48.67;;;;;2.41;74.14;103383.53;5055912;28;45347;-66
2022/01/12 06:18:29;;;;;;;;;70.00;53.00;;;;;2.32;74.15;103373.38;5056339;28;45370;-67
2022/01/12 06:20:55;;;;;;;;;70.00;51.00;;;;;2.19;75.24;103358.59;5054500;28;45393;-66
2022/01/12 06:23:21;;;;;;;;;68.33;50.33;;;;;2.36;74.74;103377.13;5053683;28;45415;-67
2022/01/12 06:25:46;;;;;;;;;66.33;50.67;;;;;2.28;74.57;103355.84;5054477;28;45777;-68
2022/01/12 06:31:13;;;;;;;;;70.00;51.00;;;;;2.08;76.01;103378.44;5054340;28;45663;-68
2022/01/12 06:33:45;;;;;;;;;67.33;47.33;;;;;2.14;75.72;103378.03;5039497;28;46761;-67
2022/01/12 06:36:17;;;;;;;;;69.33;52.33;;;;;2.13;75.85;103382.28;5058854;28;45229;-68
2022/01/12 06:38:44;;;;;;;;;68.67;49.00;;;;;2.21;75.82;103384.59;5058783;28;45421;-68
2022/01/12 06:41:10;;;;;;;;;65.00;49.33;;;;;2.18;75.92;103373.97;5056134;28;45499;-67
2022/01/12 06:43:36;;;;;;;;;68.00;51.33;;;;;2.26;75.69;103398.78;5053877;28;46776;-67
2022/01/12 06:46:03;;;;;;;;;71.33;53.33;;;;;2.25;75.46;103396.94;5057042;28;45513;-68
2022/01/12 06:48:30;;;;;;;;;72.67;54.00;;;;;2.09;74.97;103349.22;5057881;28;45903;-67
2022/01/12 06:50:56;;;;;;;;;71.33;53.00;;;;;2.33;75.45;103385.53;5041414;28;45535;-68
2022/01/12 06:53:22;;;;;;;;;64.33;46.33;;;;;1.76;75.32;103305.22;5073373;27;46235;-68
2022/01/12 06:55:56;;;;;;;;;74.00;51.67;;;;;2.05;76.16;103409.22;5075752;27;45427;-68
2022/01/12 06:58:23;;;;;;;;;74.67;53.00;;;;;1.93;77.18;103400.50;5077894;28;45603;-68
2022/01/12 07:00:48;;;;;;;;;73.00;54.33;;;;;1.80;76.92;103405.44;5060064;28;45269;-68
2022/01/12 07:03:14;;;;;;;;;74.67;53.00;;;;;1.81;77.13;103409.84;5073618;27;45811;-67
2022/01/12 07:05:39;;;;;;;;;70.67;53.00;;;;;1.37;77.83;103355.47;5073791;27;45461;-69
2022/01/12 07:08:05;;;;;;;;;78.33;58.00;;;;;1.70;77.67;103406.38;5055936;28;45641;-69
2022/01/12 07:10:41;;;;;;;;;74.33;53.67;;;;;1.51;77.50;103375.56;5073519;27;45409;-68
2022/01/12 07:13:11;;;;;;;;;67.00;50.33;;;;;1.79;77.43;103398.47;5071986;28;46025;-68
2022/01/12 07:15:41;;;;;;;;;70.67;53.00;;;;;1.86;76.73;103383.59;5073152;28;45879;-67
2022/01/12 07:18:23;;;;;;;;;76.67;57.00;;;;;1.81;76.84;103377.16;5072604;27;45536;-69
2022/01/12 07:20:49;;;;;;;;;77.67;53.00;;;;;1.84;76.54;103376.50;5073061;28;45679;-68
2022/01/12 07:23:15;;;;;;;;;74.33;51.00;;;;;1.91;76.80;103378.78;5073421;28;46190;-69
2022/01/12 07:25:41;;;;;;;;;75.00;55.00;;;;;1.86;76.90;103377.53;5073202;28;45392;-67
2022/01/12 07:28:07;;;;;;;;;70.00;51.33;;;;;1.77;77.55;103371.63;5073539;28;45563;-68
2022/01/12 07:30:36;;;;;;;;;70.67;51.00;;;;;1.63;77.24;103339.50;5074319;27;45487;-68
2022/01/12 07:33:02;;;;;;;;;73.00;54.00;;;;;1.89;77.14;103389.00;5075170;28;45547;-68
2022/01/12 07:35:28;;;;;;;;;73.00;53.00;;;;;2.03;76.84;103394.38;5075214;28;45562;-68
2022/01/12 07:37:53;;;;;;;;;72.33;50.33;;;;;1.98;76.76;103396.59;5073132;28;45495;-68
2022/01/12 07:40:19;;;;;;;;;74.67;53.33;;;;;1.90;76.78;103402.84;5072798;28;45402;-67
2022/01/12 07:42:45;;;;;;;;;73.00;55.00;;;;;1.89;77.12;103419.09;5052996;28;46432;-67
2022/01/12 07:45:11;;;;;;;;;74.67;55.00;;;;;1.80;77.07;103405.44;5053040;28;45494;-68
2022/01/12 07:47:38;;;;;;;;;74.00;52.67;;;;;1.86;77.61;103426.63;5066842;28;45386;-67
2022/01/12 07:50:06;;;;;;;;;63.00;51.33;;;;;1.84;76.81;103428.19;5075777;27;45520;-68
2022/01/12 07:52:33;;;;;;;;;70.67;53.33;;;;;1.87;76.93;103436.16;5056268;28;46628;-67
2022/01/12 07:55:00;;;;;;;;;75.67;56.33;;;;;2.00;77.25;103443.25;5073825;27;45359;-66
2022/01/12 07:57:26;;;;;;;;;80.33;58.67;;;;;1.98;77.19;103448.28;5073622;28;45427;-68
2022/01/12 07:59:52;;;;;;;;;77.33;58.67;;;;;2.03;76.65;103456.41;5072923;28;45698;-68
2022/01/12 08:02:18;;;;;;;;;82.00;57.67;;;;;1.53;77.03;103384.34;5073358;28;46620;-68
2022/01/12 08:04:43;;;;;;;;;76.67;58.67;;;;;1.91;76.58;103446.88;5073502;28;45477;-67
2022/01/12 08:07:10;;;;;;;;;75.00;58.00;;;;;1.94;77.23;103456.56;5075116;28;45458;-68
2022/01/12 08:09:41;;;;;;;;;86.67;67.00;;;;;1.99;76.92;103449.19;5076018;27;45654;-67
2022/01/12 08:12:08;;;;;;;;;81.33;62.67;;;;;2.01;76.27;103447.63;5076033;28;45449;-67
2022/01/12 08:14:33;;;;;;;;;84.67;59.00;;;;;2.05;76.99;103467.78;5062106;28;45475;-68
2022/01/12 08:17:00;;;;;;;;;82.00;67.67;;;;;2.03;76.78;103465.06;5079497;28;45464;-66
2022/01/12 08:19:26;;;;;;;;;81.33;60.67;;;;;2.11;76.35;103478.59;5077343;27;45751;-67
2022/01/12 08:21:52;;;;;;;;;82.33;63.33;;;;;2.19;76.21;103474.97;5077105;28;45496;-68
2022/01/12 08:24:19;;;;;;;;;84.33;62.00;;;;;2.20;75.90;103475.84;5076872;27;45536;-69
2022/01/12 08:26:45;;;;;;;;;73.67;52.00;;;;;2.36;76.19;103493.50;5080481;27;45492;-68
2022/01/12 08:29:14;;;;;;;;;79.67;60.00;;;;;2.26;75.29;103472.09;5077063;28;45342;-67
2022/01/12 08:31:44;;;;;;;;;70.00;52.00;;;;;2.53;75.93;103494.03;5078607;27;46122;-67
2022/01/12 08:34:10;;;;;;;;;79.67;56.67;;;;;2.65;74.36;103480.28;5081705;27;45315;-67
2022/01/12 08:36:39;;;;;;;;;67.00;51.67;;;;;3.09;73.98;103499.25;5077808;28;45341;-67
2022/01/12 08:39:08;;;;;;;;;73.33;52.00;;;;;3.61;73.23;103495.44;5078987;28;45468;-68
2022/01/12 08:41:35;;;;;;;;;69.33;50.00;;;;;4.10;71.26;103497.22;5079408;28;45557;-67
2022/01/12 08:44:02;;;;;;;;;74.33;55.33;;;;;4.28;69.25;103508.03;5077887;28;45446;-67
2022/01/12 08:46:28;;;;;;;;;77.33;51.33;;;;;4.36;69.74;103505.19;5081704;28;45286;-67
2022/01/12 08:48:54;;;;;;;;;72.67;52.33;;;;;4.87;67.87;103447.34;5083704;27;45444;-67
2022/01/12 08:51:20;;;;;;;;;71.00;52.00;;;;;6.01;65.73;103509.56;5079970;27;45736;-67
2022/01/12 08:53:45;;;;;;;;;70.00;50.00;;;;;6.14;65.09;103482.63;5080831;27;45349;-68
2022/01/12 08:56:11;;;;;;;;;68.50;48.00;;;;;5.63;64.88;103457.59;5063504;28;44800;-69
2022/01/12 08:58:37;;;;;;;;;66.25;49.50;;;;;5.49;65.10;103506.06;5079545;27;45306;-68
2022/01/12 09:01:04;;;;;;;;;64.33;52.00;;;;;6.20;64.33;103508.16;5079421;27;45555;-68
2022/01/12 09:03:32;;;;;;;;;70.50;47.75;;;;;6.70;62.88;103505.25;5078890;28;45453;-68
2022/01/12 09:05:58;;;;;;;;;72.50;52.50;;;;;7.45;60.56;103499.38;5080188;28;45380;-70
2022/01/12 09:08:24;;;;;;;;;65.50;50.00;;;;;8.29;59.55;103516.34;5079413;28;45369;-67
2022/01/12 09:10:50;;;;;;;;;67.75;51.25;;;;;8.57;58.59;103516.19;5075541;28;46169;-68
2022/01/12 09:13:15;;;;;;;;;69.00;51.50;;;;;8.90;56.33;103513.59;5057643;28;45578;-68
2022/01/12 09:15:41;;;;;;;;;68.75;50.50;;;;;8.99;55.87;103516.69;5076162;27;45351;-67
2022/01/12 09:18:07;;;;;;;;;69.50;50.00;;;;;9.29;54.44;103485.13;5057862;28;45617;-68
2022/01/12 09:20:32;;;;;;;;;64.00;48.25;;;;;10.11;54.32;103518.88;5075561;28;45522;-68
2022/01/12 09:22:58;;;;;;;;;67.25;47.75;;;;;10.32;53.37;103525.16;5079883;28;45386;-68
2022/01/12 09:25:24;;;;;;;;;66.25;50.00;;;;;10.80;51.66;103524.75;5078535;28;45434;-68
2022/01/12 09:27:50;;;;;;;;;66.50;49.25;;;;;10.98;49.70;103488.84;5075970;28;45347;-68
2022/01/12 09:30:18;;;;;;;;;69.25;53.00;;;;;11.76;48.20;103543.81;5076159;28;46401;-68
2022/01/12 09:32:44;;;;;;;;;68.00;51.25;;;;;11.71;48.04;103541.84;5075870;28;45646;-68
2022/01/12 09:35:11;;;;;;;;;63.75;51.25;;;;;11.28;49.88;103551.38;5079556;27;45461;-67
2022/01/12 09:37:37;;;;;;;;;65.25;49.50;;;;;10.11;51.18;103566.00;5079962;28;45412;-67
2022/01/12 09:40:04;;;;;;;;;68.25;51.00;;;;;9.40;51.58;103572.91;5077985;28;45903;-69
2022/01/12 09:42:29;;;;;;;;;68.75;51.00;;;;;8.64;54.41;103578.41;5075362;28;45360;-69
2022/01/12 09:44:56;;;;;;;;;69.75;50.00;;;;;7.97;55.05;103561.50;5057367;28;45498;-68
2022/01/12 09:47:21;;;;;;;;;70.75;52.25;;;;;7.41;56.36;103568.69;5068577;27;46560;-67
2022/01/12 09:49:47;;;;;;;;;64.25;50.00;;;;;6.94;58.13;103592.72;5072251;28;45971;-67
2022/01/12 09:52:14;;;;;;;;;68.00;51.75;;;;;6.71;59.26;103599.06;5078513;28;45607;-68
2022/01/12 09:54:40;;;;;;;;;68.25;51.50;;;;;6.56;60.29;103611.13;5077280;27;45631;-69
2022/01/12 09:57:06;;;;;;;;;67.50;51.00;;;;;6.47;60.86;103600.13;5052159;28;45575;-68
2022/01/12 09:59:32;;;;;;;;;68.00;50.50;;;;;6.46;61.02;103598.34;5059809;28;46466;-68
2022/01/12 10:01:58;;;;;;;;;68.75;53.75;;;;;6.45;61.05;103600.00;5070394;27;45610;-69
2022/01/12 10:04:27;;;;;;;;;71.75;52.75;;;;;6.39;61.33;103597.03;5073361;27;45540;-67
2022/01/12 10:07:04;;;;;;;;;65.50;53.00;;;;;6.28;61.56;103598.03;5075503;28;45462;-67
2022/01/12 10:09:36;;;;;;;;;79.67;56.00;;;;;5.91;61.90;103583.47;5078205;28;45504;-67
2022/01/12 10:12:05;;;;;;;;;77.67;56.00;;;;;5.75;62.99;103591.03;5073363;28;45461;-69
2022/01/12 10:14:50;;;;;;;;;73.33;54.67;;;;;5.63;63.15;103585.00;5060382;28;45362;-69
2022/01/12 10:17:29;;;;;;;;;77.00;59.00;;;;;5.59;63.77;103590.78;5065917;27;45405;-71
2022/01/12 10:20:09;;;;;;;;;65.00;52.00;;;;;5.42;63.89;103597.44;5076202;28;45535;-68
2022/01/12 10:22:43;;;;;;;;;74.33;54.67;;;;;5.16;64.78;103600.81;5076096;27;45748;-66
2022/01/12 10:25:18;;;;;;;;;74.00;53.33;;;;;5.02;65.78;103592.94;5046118;28;45473;-68
2022/01/12 10:27:45;;;;;;;;;77.00;55.00;;;;;4.99;66.26;103590.16;5069528;28;45230;-68
2022/01/12 10:30:27;;;;;;;;;74.33;53.67;;;;;4.98;65.53;103598.72;5074954;27;46265;-68
2022/01/12 10:33:23;;;;;;;;;67.67;49.00;;;;;4.91;66.31;103590.41;5069138;28;45810;-67
2022/01/12 10:35:55;;;;;;;;;71.33;54.00;;;;;4.89;66.72;103596.41;5055585;28;45519;-67
2022/01/12 10:38:22;;;;;;;;;77.00;56.33;;;;;4.78;67.22;103588.63;5076704;27;45188;-67
2022/01/12 10:40:52;;;;;;;;;67.00;50.67;;;;;4.82;67.09;103593.25;5067811;28;46088;-68
2022/01/12 10:43:32;;;;;;;;;78.33;56.67;;;;;4.78;66.87;103597.31;5074138;28;45354;-67
2022/01/12 10:45:59;;;;;;;;;72.33;54.33;;;;;4.75;67.15;103578.94;5073901;27;45779;-67
2022/01/12 10:48:37;;;;;;;;;80.00;56.33;;;;;4.82;66.93;103594.16;5078264;28;45363;-68
2022/01/12 10:51:02;;;;;;;;;72.67;56.00;;;;;4.85;67.40;103598.66;5073986;27;45456;-67
2022/01/12 10:53:34;;;;;;;;;72.00;53.33;;;;;4.80;67.50;103581.84;5074276;27;45398;-68
2022/01/12 10:56:05;;;;;;;;;78.00;58.67;;;;;4.92;66.55;103594.81;5075047;27;45811;-67
2022/01/12 10:58:33;;;;;;;;;70.00;54.67;;;;;4.89;66.88;103587.72;5056060;28;45500;-68
2022/01/12 11:00:59;;;;;;;;;76.00;56.00;;;;;4.89;66.88;103592.91;5074490;28;45446;-67
2022/01/12 11:03:24;;;;;;;;;73.00;56.33;;;;;4.83;67.29;103582.97;5073701;28;45327;-67
2022/01/12 11:05:53;;;;;;;;;77.67;55.67;;;;;5.00;66.71;103607.53;5074116;28;45528;-67
2022/01/12 11:08:19;;;;;;;;;69.33;54.00;;;;;4.92;67.05;103592.22;5074125;28;45438;-67
2022/01/12 11:10:48;;;;;;;;;76.00;56.33;;;;;4.89;67.00;103611.97;5055176;28;47328;-67
2022/01/12 11:13:14;;;;;;;;;75.00;57.00;;;;;4.87;66.72;103589.28;5074519;28;45326;-69
2022/01/12 11:15:41;;;;;;;;;72.33;56.00;;;;;5.07;66.90;103599.38;5077150;27;45421;-67
2022/01/12 11:18:07;;;;;;;;;78.00;57.33;;;;;5.17;66.50;103613.91;5074178;28;45749;-68
2022/01/12 11:20:33;;;;;;;;;79.67;61.67;;;;;5.14;66.31;103595.50;5073737;28;45440;-67
2022/01/12 11:23:09;;;;;;;;;78.33;62.00;;;;;5.17;66.78;103605.22;5074142;28;45720;-70
2022/01/12 11:25:39;;;;;;;;;77.67;64.67;;;;;5.03;66.48;103584.38;5073802;28;45527;-66
2022/01/12 11:28:23;;;;;;;;;70.33;55.00;;;;;5.09;66.25;103592.59;5055808;28;45528;-69
2022/01/12 11:30:50;;;;;;;;;78.00;57.00;;;;;5.21;66.80;103597.75;5073833;28;45394;-69
2022/01/12 11:33:20;;;;;;;;;76.33;57.67;;;;;5.21;66.54;103596.84;5073330;27;45493;-67
2022/01/12 11:35:49;;;;;;;;;83.00;61.33;;;;;5.23;66.34;103592.66;5073356;28;45556;-69
2022/01/12 11:38:30;;;;;;;;;76.00;57.33;;;;;5.24;66.66;103595.38;5055835;28;45642;-68
2022/01/12 11:41:17;;;;;;;;;82.33;60.00;;;;;4.92;66.16;103550.66;5073928;28;45369;-69
2022/01/12 11:43:47;;;;;;;;;78.67;63.33;;;;;5.11;65.94;103590.09;5077255;27;45449;-68
2022/01/12 11:46:24;;;;;;;;;81.00;63.67;;;;;5.15;66.35;103592.13;5077887;28;45370;-69
2022/01/12 11:48:52;;;;;;;;;74.67;56.00;;;;;5.26;66.31;103580.78;5077812;28;45334;-70
2022/01/12 11:51:31;;;;;;;;;72.33;55.00;;;;;5.34;66.27;103577.81;5077163;28;45386;-68
2022/01/12 11:54:01;;;;;;;;;77.00;57.33;;;;;5.45;65.81;103579.44;5076584;27;45929;-68
2022/01/12 11:56:27;;;;;;;;;75.33;54.00;;;;;5.42;66.10;103567.13;5077187;28;45477;-69
2022/01/12 11:59:20;;;;;;;;;79.67;57.33;;;;;5.55;65.96;103574.06;5076839;27;45547;-67
2022/01/12 12:01:49;;;;;;;;;72.00;55.00;;;;;5.60;65.51;103571.78;5072759;28;45423;-69
2022/01/12 12:04:30;;;;;;;;;75.33;55.33;;;;;5.71;64.99;103573.41;5076826;28;45328;-68
2022/01/12 12:07:09;;;;;;;;;100.33;88.00;;;;;5.78;70.70;103544.41;5077362;27;45672;-71
2022/01/12 12:09:48;;;;;;;;;84.33;67.33;;;;;6.16;65.70;103573.00;5076691;27;45604;-67
2022/01/12 12:12:20;;;;;;;;;77.33;57.67;;;;;6.22;65.40;103551.69;5076677;27;46731;-67
2022/01/12 12:14:53;;;;;;;;;78.00;60.33;;;;;6.36;65.04;103568.19;5076400;28;45529;-71
2022/01/12 12:17:20;;;;;;;;;73.33;56.33;;;;;6.46;64.42;103564.50;5076567;28;45399;-68
2022/01/12 12:19:48;;;;;;;;;70.75;53.75;;;;;6.54;64.29;103569.34;5076863;27;45862;-67
2022/01/12 12:22:15;;;;;;;;;69.50;53.00;;;;;6.54;64.29;103553.72;5075846;28;45616;-68
2022/01/12 12:24:42;;;;;;;;;78.67;62.00;;;;;6.62;63.42;103556.84;5075398;27;45472;-67
2022/01/12 12:27:10;;;;;;;;;72.00;57.00;;;;;6.62;62.50;103563.75;5076922;27;45501;-68
2022/01/12 12:29:37;;;;;;;;;73.67;57.33;;;;;6.63;63.10;103548.22;5079363;28;45377;-68
2022/01/12 12:32:05;;;;;;;;;69.75;51.50;;;;;6.65;62.78;103550.94;5057646;28;46153;-67
2022/01/12 12:34:33;;;;;;;;;68.50;51.25;;;;;6.60;62.25;103535.00;5039406;28;45410;-68
2022/01/12 12:37:10;;;;;;;;;68.00;53.50;;;;;6.73;62.34;103544.50;5059532;28;45563;-71
2022/01/12 12:39:39;;;;;;;;;70.00;54.00;;;;;6.54;62.26;103503.38;5063432;27;45358;-68
2022/01/12 12:42:19;;;;;;;;;69.25;52.75;;;;;6.74;61.82;103528.06;5037856;28;45896;-68
2022/01/12 12:44:47;;;;;;;;;75.33;57.00;;;;;6.75;62.33;103525.53;5056145;28;45414;-68